createdAt,value
2022-11-24T00:01:16.500Z,30.35
2022-11-24T00:04:33.797Z,31.33
2022-11-24T00:07:50.600Z,30.25
2022-11-24T00:11:13.521Z,31.70
2022-11-24T00:14:29.702Z,31.03
2022-11-24T00:17:45.890Z,30.08
2022-11-24T00:21:03.194Z,29.15
2022-11-24T00:24:20.752Z,31.13
2022-11-24T00:27:36.944Z,30.33
2022-11-24T00:30:53.211Z,30.55
2022-11-24T00:34:12.495Z,27.40
2022-11-24T00:40:42.646Z,26.90
2022-11-24T00:43:59.115Z,27.70
2022-11-24T00:47:15.923Z,26.45
2022-11-24T00:50:32.248Z,27.20
2022-11-24T00:53:49.102Z,26.98
2022-11-24T00:57:05.812Z,28.28
2022-11-24T01:00:24.474Z,26.25
2022-11-24T01:03:41.275Z,26.80
2022-11-24T01:06:57.817Z,25.23
2022-11-24T01:10:16.008Z,24.63
2022-11-24T01:13:32.165Z,26.80
2022-11-24T01:16:48.431Z,26.75
2022-11-24T01:20:05.563Z,26.60
2022-11-24T01:23:21.828Z,24.98
2022-11-24T01:26:37.959Z,25.20
2022-11-24T01:29:54.497Z,25.58
2022-11-24T01:33:10.734Z,26.25
2022-11-24T01:36:28.919Z,25.65
2022-11-24T01:39:45.073Z,26.35
2022-11-24T01:43:01.971Z,26.10
2022-11-24T01:46:25.314Z,27.13
2022-11-24T01:49:48.168Z,26.15
2022-11-24T01:53:06.135Z,26.85
2022-11-24T01:56:23.154Z,26.30
2022-11-24T01:59:40.533Z,26.18
2022-11-24T02:02:56.874Z,27.25
2022-11-24T02:06:17.884Z,26.33
2022-11-24T02:09:38.762Z,27.05
2022-11-24T02:12:59.680Z,27.80
2022-11-24T02:16:19.203Z,27.48
2022-11-24T02:19:46.554Z,27.33
2022-11-24T02:23:07.709Z,27.70
2022-11-24T02:26:32.374Z,28.53
2022-11-24T02:29:50.443Z,28.28
2022-11-24T02:33:07.267Z,28.23
2022-11-24T02:36:23.618Z,28.28
2022-11-24T02:39:39.889Z,28.58
2022-11-24T02:42:57.692Z,28.60
2022-11-24T02:46:15.183Z,27.15
2022-11-24T02:49:33.416Z,27.30
2022-11-24T02:52:49.858Z,27.93
2022-11-24T02:56:06.380Z,29.63
2022-11-24T02:59:22.554Z,28.48
2022-11-24T03:02:39.472Z,26.90
2022-11-24T03:05:56.000Z,27.33
2022-11-24T03:09:15.248Z,26.43
2022-11-24T03:12:31.346Z,26.30
2022-11-24T03:15:48.720Z,26.55
2022-11-24T03:19:05.099Z,25.83
2022-11-24T03:22:21.864Z,25.45
2022-11-24T03:25:37.985Z,24.45
2022-11-24T03:28:55.288Z,23.02
2022-11-24T03:32:11.966Z,22.88
2022-11-24T03:35:28.999Z,22.35
2022-11-24T03:38:45.480Z,24.30
2022-11-24T03:42:01.702Z,22.08
2022-11-24T03:45:44.877Z,22.93
2022-11-24T03:48:38.298Z,22.80
2022-11-24T03:51:54.341Z,21.77
2022-11-24T03:55:11.274Z,21.55
2022-11-24T03:58:30.294Z,20.90
2022-11-24T04:01:46.760Z,20.05
2022-11-24T04:05:02.988Z,20.00
2022-11-24T04:08:19.702Z,20.28
2022-11-24T04:11:50.088Z,20.63
2022-11-24T04:15:06.291Z,19.33
2022-11-24T04:18:23.286Z,20.75
2022-11-24T04:21:39.852Z,21.73
2022-11-24T04:24:56.063Z,21.45
2022-11-24T04:28:12.877Z,21.73
2022-11-24T04:31:29.215Z,21.55
2022-11-24T04:34:46.679Z,21.43
2022-11-24T04:38:09.018Z,20.23
2022-11-24T04:41:25.428Z,20.98
2022-11-24T04:44:41.658Z,19.38
2022-11-24T04:47:58.284Z,20.13
2022-11-24T04:51:16.072Z,20.45
2022-11-24T04:54:32.707Z,21.05
2022-11-24T04:57:49.310Z,19.65
2022-11-24T05:01:05.668Z,19.03
2022-11-24T05:04:23.795Z,19.18
2022-11-24T05:07:40.265Z,19.40
2022-11-24T05:10:56.674Z,19.40
2022-11-24T05:14:13.090Z,20.35
2022-11-24T05:17:29.422Z,20.65
2022-11-24T05:20:46.039Z,20.60
2022-11-24T05:24:02.393Z,20.23
2022-11-24T05:27:19.389Z,20.68
2022-11-24T05:30:36.105Z,22.68
2022-11-24T05:33:52.415Z,21.00
2022-11-24T05:37:09.098Z,20.95
2022-11-24T05:40:26.312Z,20.33
2022-11-24T05:43:43.486Z,22.03
2022-11-24T05:46:59.889Z,22.05
2022-11-24T05:50:18.851Z,21.90
2022-11-24T05:53:35.354Z,22.60
2022-11-24T05:56:51.525Z,22.33
2022-11-24T06:00:08.881Z,22.20
2022-11-24T06:03:31.087Z,24.85
2022-11-24T06:06:47.305Z,23.73
2022-11-24T06:10:03.564Z,23.95
2022-11-24T06:13:20.213Z,26.30
2022-11-24T06:16:37.266Z,26.75
2022-11-24T06:19:55.545Z,29.00
2022-11-24T06:23:11.904Z,29.68
2022-11-24T06:26:28.574Z,30.63
2022-11-24T06:29:44.909Z,30.30
2022-11-24T06:33:04.510Z,31.05
2022-11-24T06:42:59.174Z,32.13
2022-11-24T06:46:15.786Z,33.90
2022-11-24T06:49:33.854Z,33.58
2022-11-24T06:52:50.310Z,34.40
2022-11-24T06:56:15.646Z,34.23
2022-11-24T06:59:30.105Z,33.48
2022-11-24T07:02:46.855Z,33.55
2022-11-24T07:06:07.723Z,34.05
2022-11-24T07:09:24.858Z,33.45
2022-11-24T07:12:44.853Z,36.10
2022-11-24T07:16:01.315Z,36.30
2022-11-24T07:19:24.406Z,36.13
2022-11-24T07:25:51.292Z,36.08
2022-11-24T07:29:07.838Z,35.15
2022-11-24T07:32:24.350Z,35.38
2022-11-24T07:35:41.324Z,34.28
2022-11-24T07:38:58.093Z,31.83
2022-11-24T07:42:14.894Z,30.80
2022-11-24T07:45:32.587Z,29.28
2022-11-24T07:48:49.495Z,30.80
2022-11-24T07:52:06.059Z,29.28
2022-11-24T07:55:23.821Z,29.73
2022-11-24T07:58:42.687Z,30.38
2022-11-24T08:01:59.262Z,29.90
2022-11-24T08:05:16.753Z,30.98
2022-11-24T08:08:34.111Z,31.13
2022-11-24T08:11:50.681Z,29.68
2022-11-24T08:15:11.168Z,29.48
2022-11-24T08:18:28.940Z,31.03
2022-11-24T08:21:45.662Z,30.20
2022-11-24T08:25:02.242Z,29.33
2022-11-24T08:28:20.064Z,30.55
2022-11-24T08:31:37.963Z,32.18
2022-11-24T08:34:59.707Z,30.30
2022-11-24T08:38:13.284Z,33.63
2022-11-24T08:41:30.087Z,36.10
2022-11-24T08:44:46.678Z,33.73
2022-11-24T08:48:05.142Z,36.13
2022-11-24T08:51:25.005Z,38.38
2022-11-24T08:54:41.562Z,38.38
2022-11-24T08:57:58.215Z,37.90
2022-11-24T09:01:18.429Z,37.68
2022-11-24T09:04:35.530Z,36.33
2022-11-24T09:07:52.676Z,36.88
2022-11-24T09:11:12.501Z,36.28
2022-11-24T09:14:29.693Z,36.78
2022-11-24T09:17:47.112Z,34.73
2022-11-24T09:21:09.849Z,34.80
2022-11-24T09:24:26.859Z,33.05
2022-11-24T09:27:46.665Z,32.05
2022-11-24T09:31:05.617Z,31.65
2022-11-24T09:34:24.186Z,33.23
2022-11-24T09:37:44.135Z,32.43
2022-11-24T09:41:02.236Z,31.03
2022-11-24T09:44:51.395Z,31.23
2022-11-24T09:48:13.418Z,29.20
2022-11-24T09:51:33.365Z,29.03
2022-11-24T09:54:54.030Z,27.75
2022-11-24T09:58:26.822Z,29.28
2022-11-24T10:01:46.723Z,28.13
2022-11-24T10:05:03.040Z,27.35
2022-11-24T10:08:31.625Z,25.58
2022-11-24T10:11:52.592Z,27.05
2022-11-24T10:15:34.297Z,30.30
2022-11-24T10:19:05.625Z,31.55
2022-11-24T10:22:37.121Z,26.38
2022-11-24T10:25:57.775Z,26.50
2022-11-24T10:29:24.881Z,26.10
2022-11-24T10:32:46.038Z,26.15
2022-11-24T10:36:07.114Z,26.45
2022-11-24T10:39:29.152Z,26.95
2022-11-24T10:42:48.080Z,29.25
2022-11-24T10:46:08.611Z,30.48
2022-11-24T10:49:31.472Z,29.05
2022-11-24T10:52:52.597Z,32.20
2022-11-24T10:56:13.238Z,33.08
2022-11-24T10:59:43.062Z,36.13
2022-11-24T11:03:15.125Z,37.58
2022-11-24T11:06:37.718Z,36.95
2022-11-24T11:09:55.259Z,41.10
2022-11-24T11:13:30.524Z,41.95
2022-11-24T11:16:51.537Z,42.13
2022-11-24T11:20:19.711Z,42.80
2022-11-24T11:23:40.617Z,46.68
2022-11-24T11:27:01.695Z,46.10
2022-11-24T11:34:05.473Z,48.90
2022-11-24T11:37:22.578Z,47.73
2022-11-24T11:40:40.779Z,47.73
2022-11-24T11:44:03.540Z,48.78
2022-11-24T11:47:29.588Z,46.85
2022-11-24T11:54:20.532Z,49.35
2022-11-24T11:57:41.662Z,47.45
2022-11-24T12:01:03.536Z,49.48
2022-11-24T12:04:40.678Z,50.55
2022-11-24T12:08:17.554Z,50.98
2022-11-24T12:11:39.440Z,49.80
2022-11-24T12:15:07.368Z,47.15
2022-11-24T12:18:57.021Z,51.33
2022-11-24T12:22:04.370Z,51.18
2022-11-24T12:25:32.791Z,51.60
2022-11-24T12:28:56.927Z,52.43
2022-11-24T12:32:24.230Z,49.35
2022-11-24T12:35:44.796Z,47.88
2022-11-24T12:39:10.466Z,49.90
2022-11-24T12:42:36.033Z,49.70
2022-11-24T12:46:00.124Z,46.98
2022-11-24T12:49:25.431Z,49.35
2022-11-24T12:52:46.429Z,47.88
2022-11-24T12:56:07.125Z,45.75
2022-11-24T12:59:36.120Z,44.93
2022-11-24T13:03:11.300Z,45.73
2022-11-24T13:06:33.678Z,55.55
2022-11-24T13:10:30.151Z,46.43
2022-11-24T13:20:30.972Z,47.75
2022-11-24T13:23:47.988Z,45.85
2022-11-24T13:27:36.955Z,46.93
2022-11-24T13:31:25.353Z,45.45
2022-11-24T13:35:15.676Z,44.38
2022-11-24T13:38:59.044Z,44.88
2022-11-24T13:42:43.250Z,43.68
2022-11-24T13:45:59.112Z,44.15
2022-11-24T13:49:25.916Z,44.63
2022-11-24T13:53:13.399Z,45.68
2022-11-24T13:56:37.512Z,46.38
2022-11-24T13:59:54.176Z,42.88
2022-11-24T14:03:19.211Z,41.60
2022-11-24T14:06:41.881Z,37.20
2022-11-24T14:10:02.432Z,29.55
2022-11-24T14:13:37.868Z,25.93
2022-11-24T14:16:54.915Z,25.08
2022-11-24T14:20:24.956Z,23.73
2022-11-24T14:23:46.168Z,23.58
2022-11-24T14:27:02.704Z,19.63
2022-11-24T14:30:30.934Z,17.70
2022-11-24T14:33:47.500Z,15.90
2022-11-24T14:37:05.655Z,14.60
2022-11-24T14:40:49.197Z,13.68
2022-11-24T14:44:24.600Z,13.75
2022-11-24T14:47:42.946Z,13.30
2022-11-24T14:51:04.200Z,14.70
2022-11-24T14:54:27.051Z,14.28
2022-11-24T14:57:46.840Z,13.80
2022-11-24T15:01:31.447Z,12.95
2022-11-24T15:05:04.112Z,13.10
2022-11-24T15:08:23.429Z,13.93
2022-11-24T15:11:43.020Z,14.10
2022-11-24T15:15:04.475Z,13.35
2022-11-24T15:18:41.236Z,13.83
2022-11-24T15:21:59.157Z,13.83
2022-11-24T15:25:43.682Z,13.63
2022-11-24T15:29:00.208Z,13.33
2022-11-24T15:32:25.174Z,13.53
2022-11-24T15:35:42.393Z,12.38
2022-11-24T15:39:00.222Z,12.60
2022-11-24T15:42:21.639Z,12.03
2022-11-24T15:45:37.960Z,12.35
2022-11-24T15:48:54.344Z,12.45
2022-11-24T15:52:14.834Z,13.23
2022-11-24T15:55:32.094Z,13.03
2022-11-24T15:58:52.602Z,14.08
2022-11-24T16:02:11.660Z,14.68
2022-11-24T16:05:28.002Z,14.90
2022-11-24T16:08:44.281Z,14.73
2022-11-24T16:12:00.527Z,16.15
2022-11-24T16:15:18.546Z,16.93
2022-11-24T16:18:36.226Z,17.43
2022-11-24T16:21:54.910Z,16.73
2022-11-24T16:25:12.100Z,16.68
2022-11-24T16:28:28.578Z,18.40
2022-11-24T16:31:46.837Z,16.48
2022-11-24T16:35:03.178Z,15.10
2022-11-24T16:38:24.207Z,16.60
2022-11-24T16:41:40.743Z,15.60
2022-11-24T16:44:57.261Z,15.00
2022-11-24T16:48:14.252Z,15.90
2022-11-24T16:51:34.758Z,16.30
2022-11-24T16:54:53.025Z,15.68
2022-11-24T16:58:10.538Z,14.70
2022-11-24T17:01:27.546Z,14.90
2022-11-24T17:04:44.460Z,15.33
2022-11-24T17:08:09.419Z,17.40
2022-11-24T17:11:33.690Z,16.53
2022-11-24T17:15:24.617Z,16.93
2022-11-24T17:18:30.395Z,18.95
2022-11-24T17:25:00.927Z,18.35
2022-11-24T17:28:18.239Z,18.58
2022-11-24T17:31:41.026Z,19.63
2022-11-24T17:34:57.542Z,18.40
2022-11-24T17:38:14.201Z,17.40
2022-11-24T17:41:30.996Z,19.10
2022-11-24T17:44:47.480Z,18.55
2022-11-24T17:48:04.494Z,18.03
2022-11-24T17:51:23.413Z,17.60
2022-11-24T17:54:46.482Z,17.48
2022-11-24T17:57:57.999Z,17.05
2022-11-24T18:01:14.898Z,18.43
2022-11-24T18:04:31.540Z,18.50
2022-11-24T18:07:50.672Z,18.60
2022-11-24T18:11:13.211Z,18.23
2022-11-24T18:14:29.520Z,19.85
2022-11-24T18:17:46.092Z,18.60
2022-11-24T18:21:05.707Z,18.03
2022-11-24T18:27:37.099Z,17.10
2022-11-24T18:30:53.729Z,18.05
2022-11-24T18:34:10.577Z,17.98
2022-11-24T18:37:26.896Z,17.63
2022-11-24T18:40:45.566Z,17.70
2022-11-24T18:44:03.141Z,16.43
2022-11-24T18:47:20.980Z,16.88
2022-11-24T18:50:38.741Z,18.25
2022-11-24T18:53:59.336Z,19.63
2022-11-24T18:57:15.989Z,21.40
2022-11-24T19:00:34.207Z,18.98
2022-11-24T19:03:57.563Z,18.85
2022-11-24T19:07:15.991Z,21.60
2022-11-24T19:10:32.317Z,22.48
2022-11-24T19:13:49.633Z,24.53
2022-11-24T19:17:08.116Z,24.28
2022-11-24T19:20:25.015Z,23.83
2022-11-24T19:23:43.740Z,24.90
2022-11-24T19:27:00.579Z,27.93
2022-11-24T19:30:20.869Z,24.93
2022-11-24T19:33:40.536Z,27.35
2022-11-24T19:36:57.330Z,25.10
2022-11-24T19:40:16.989Z,24.75
2022-11-24T19:43:38.315Z,24.60
2022-11-24T19:46:54.921Z,24.35
2022-11-24T19:50:12.965Z,23.13
2022-11-24T19:53:30.800Z,25.03
2022-11-24T19:56:47.721Z,22.80
2022-11-24T20:00:04.631Z,24.03
2022-11-24T20:03:22.421Z,23.08
2022-11-24T20:06:43.669Z,22.83
2022-11-24T20:10:07.717Z,21.88
2022-11-24T20:13:23.403Z,21.50
2022-11-24T20:16:44.307Z,23.85
2022-11-24T20:20:01.234Z,23.48
2022-11-24T20:23:18.814Z,20.88
2022-11-24T20:26:38.212Z,21.30
2022-11-24T20:29:57.067Z,20.30
2022-11-24T20:33:16.566Z,20.20
2022-11-24T20:36:36.914Z,21.20
2022-11-24T20:39:53.475Z,20.63
2022-11-24T20:43:10.372Z,22.05
2022-11-24T20:46:31.379Z,19.45
2022-11-24T20:53:01.384Z,21.35
2022-11-24T20:56:21.140Z,21.75
2022-11-24T20:59:37.666Z,21.35
2022-11-24T21:02:54.178Z,22.50
2022-11-24T21:06:11.031Z,22.68
2022-11-24T21:09:28.343Z,22.35
2022-11-24T21:12:45.013Z,23.68
2022-11-24T21:16:02.366Z,23.38
2022-11-24T21:19:22.289Z,26.05
2022-11-24T21:22:39.840Z,26.80
2022-11-24T21:25:55.927Z,28.88
2022-11-24T21:29:13.837Z,32.75
2022-11-24T21:32:30.207Z,32.35
2022-11-24T21:35:47.260Z,34.28
2022-11-24T21:39:05.815Z,33.93
2022-11-24T21:42:22.449Z,32.75
2022-11-24T21:45:40.974Z,32.10
2022-11-24T21:48:57.748Z,32.73
2022-11-24T21:52:14.350Z,32.85
2022-11-24T21:55:30.831Z,33.00
2022-11-24T21:58:52.186Z,31.93
2022-11-24T22:02:12.896Z,31.28
2022-11-24T22:05:26.601Z,31.95
2022-11-24T22:08:45.388Z,31.13
2022-11-24T22:12:01.568Z,31.10
2022-11-24T22:15:19.103Z,31.88
2022-11-24T22:18:38.507Z,29.35
2022-11-24T22:28:24.177Z,31.03
2022-11-24T22:31:41.785Z,32.55
2022-11-24T22:34:57.892Z,33.18
2022-11-24T22:38:14.265Z,33.15
2022-11-24T22:41:30.564Z,33.55
2022-11-24T22:44:46.757Z,33.80
2022-11-24T22:48:04.776Z,35.08
2022-11-24T22:51:24.140Z,33.65
2022-11-24T22:54:40.383Z,35.08
2022-11-24T22:57:57.453Z,36.78
2022-11-24T23:01:19.911Z,39.65
2022-11-24T23:04:36.553Z,41.20
2022-11-24T23:07:53.050Z,42.73
2022-11-24T23:11:19.878Z,44.03
2022-11-24T23:14:36.475Z,44.10
2022-11-24T23:17:53.431Z,45.20
2022-11-24T23:21:16.782Z,47.33
2022-11-24T23:24:33.231Z,48.60
2022-11-24T23:27:49.813Z,55.90
2022-11-24T23:31:12.290Z,57.98
2022-11-24T23:34:30.979Z,59.78
2022-11-24T23:38:06.531Z,61.63
2022-11-24T23:41:11.532Z,65.58
2022-11-24T23:44:27.657Z,64.53
2022-11-24T23:47:44.226Z,63.23
2022-11-24T23:51:00.636Z,63.83
2022-11-24T23:54:17.648Z,62.13
2022-11-24T23:57:33.819Z,57.10
